sensor_id;sensor_type;location;lat;lon;timestamp;temperature;humidity
6738;DHT22;3406;49.902;8.596;2022-10-14T00:01:30;14.30;99.90
6738;DHT22;3406;49.902;8.596;2022-10-14T00:03:57;14.30;99.90
6738;DHT22;3406;49.902;8.596;2022-10-14T00:06:27;14.30;99.90
6738;DHT22;3406;49.902;8.596;2022-10-14T00:08:55;14.30;99.90
6738;DHT22;3406;49.902;8.596;2022-10-14T00:11:23;14.30;99.90
6738;DHT22;3406;49.902;8.596;2022-10-14T00:13:52;14.30;99.90
6738;DHT22;3406;49.902;8.596;2022-10-14T00:16:22;14.40;99.90
6738;DHT22;3406;49.902;8.596;2022-10-14T00:18:49;14.30;99.90
6738;DHT22;3406;49.902;8.596;2022-10-14T00:21:16;14.40;99.90
6738;DHT22;3406;49.902;8.596;2022-10-14T00:23:43;14.40;99.90
6738;DHT22;3406;49.902;8.596;2022-10-14T00:26:14;14.40;99.90
6738;DHT22;3406;49.902;8.596;2022-10-14T00:28:41;14.40;99.90
6738;DHT22;3406;49.902;8.596;2022-10-14T00:31:09;14.40;99.90
6738;DHT22;3406;49.902;8.596;2022-10-14T00:33:36;14.40;99.90
6738;DHT22;3406;49.902;8.596;2022-10-14T00:36:04;14.40;99.90
6738;DHT22;3406;49.902;8.596;2022-10-14T00:38:32;14.40;99.90
6738;DHT22;3406;49.902;8.596;2022-10-14T00:40:59;14.40;99.90
6738;DHT22;3406;49.902;8.596;2022-10-14T00:43:27;14.40;99.90
6738;DHT22;3406;49.902;8.596;2022-10-14T00:45:54;14.30;99.90
6738;DHT22;3406;49.902;8.596;2022-10-14T00:48:23;14.30;99.90
6738;DHT22;3406;49.902;8.596;2022-10-14T00:50:53;14.40;99.90
6738;DHT22;3406;49.902;8.596;2022-10-14T00:53:20;14.40;99.90
6738;DHT22;3406;49.902;8.596;2022-10-14T00:55:47;14.40;99.90
6738;DHT22;3406;49.902;8.596;2022-10-14T00:58:14;14.40;99.90
6738;DHT22;3406;49.902;8.596;2022-10-14T01:00:41;14.40;99.90
6738;DHT22;3406;49.902;8.596;2022-10-14T01:03:09;14.40;99.90
6738;DHT22;3406;49.902;8.596;2022-10-14T01:05:41;14.40;99.90
6738;DHT22;3406;49.902;8.596;2022-10-14T01:08:12;14.40;99.90
6738;DHT22;3406;49.902;8.596;2022-10-14T01:10:44;14.40;99.90
6738;DHT22;3406;49.902;8.596;2022-10-14T01:13:22;14.50;99.90
6738;DHT22;3406;49.902;8.596;2022-10-14T01:15:56;14.50;99.90
6738;DHT22;3406;49.902;8.596;2022-10-14T01:18:36;14.40;99.90
6738;DHT22;3406;49.902;8.596;2022-10-14T01:21:14;14.40;99.90
6738;DHT22;3406;49.902;8.596;2022-10-14T01:23:56;14.40;99.90
6738;DHT22;3406;49.902;8.596;2022-10-14T01:26:42;14.40;99.90
6738;DHT22;3406;49.902;8.596;2022-10-14T01:29:22;14.40;99.90
6738;DHT22;3406;49.902;8.596;2022-10-14T01:32:01;14.50;99.90
6738;DHT22;3406;49.902;8.596;2022-10-14T01:34:38;14.40;99.90
6738;DHT22;3406;49.902;8.596;2022-10-14T01:37:11;14.40;99.90
6738;DHT22;3406;49.902;8.596;2022-10-14T01:39:43;14.40;99.90
6738;DHT22;3406;49.902;8.596;2022-10-14T01:42:14;14.40;99.90
6738;DHT22;3406;49.902;8.596;2022-10-14T01:44:45;14.40;99.90
6738;DHT22;3406;49.902;8.596;2022-10-14T01:47:18;14.40;99.90
6738;DHT22;3406;49.902;8.596;2022-10-14T01:49:51;14.40;99.90
6738;DHT22;3406;49.902;8.596;2022-10-14T01:52:23;14.40;99.90
6738;DHT22;3406;49.902;8.596;2022-10-14T01:54:54;14.40;99.90
6738;DHT22;3406;49.902;8.596;2022-10-14T01:57:25;14.40;99.90
6738;DHT22;3406;49.902;8.596;2022-10-14T01:59:53;14.40;99.90
6738;DHT22;3406;49.902;8.596;2022-10-14T02:02:22;14.40;99.90
6738;DHT22;3406;49.902;8.596;2022-10-14T02:04:50;14.40;99.90
6738;DHT22;3406;49.902;8.596;2022-10-14T02:07:20;14.40;99.90
6738;DHT22;3406;49.902;8.596;2022-10-14T02:09:58;14.40;99.90
6738;DHT22;3406;49.902;8.596;2022-10-14T02:12:34;14.50;99.90
6738;DHT22;3406;49.902;8.596;2022-10-14T02:15:10;14.40;99.90
6738;DHT22;3406;49.902;8.596;2022-10-14T02:17:46;14.40;99.90
6738;DHT22;3406;49.902;8.596;2022-10-14T02:20:22;14.40;99.90
6738;DHT22;3406;49.902;8.596;2022-10-14T02:22:53;14.40;99.90
6738;DHT22;3406;49.902;8.596;2022-10-14T02:25:25;14.40;99.90
6738;DHT22;3406;49.902;8.596;2022-10-14T02:27:53;14.40;99.90
6738;DHT22;3406;49.902;8.596;2022-10-14T02:30:20;14.40;99.90
6738;DHT22;3406;49.902;8.596;2022-10-14T02:32:49;14.40;99.90
6738;DHT22;3406;49.902;8.596;2022-10-14T02:35:17;14.40;99.90
6738;DHT22;3406;49.902;8.596;2022-10-14T02:37:46;14.40;99.90
6738;DHT22;3406;49.902;8.596;2022-10-14T02:40:17;14.30;99.90
6738;DHT22;3406;49.902;8.596;2022-10-14T02:42:45;14.30;99.90
6738;DHT22;3406;49.902;8.596;2022-10-14T02:45:13;14.30;99.90
6738;DHT22;3406;49.902;8.596;2022-10-14T02:47:41;14.30;99.90
6738;DHT22;3406;49.902;8.596;2022-10-14T02:50:10;14.40;99.90
6738;DHT22;3406;49.902;8.596;2022-10-14T02:52:37;14.30;99.90
6738;DHT22;3406;49.902;8.596;2022-10-14T02:55:04;14.30;99.90
6738;DHT22;3406;49.902;8.596;2022-10-14T02:57:31;14.30;99.90
6738;DHT22;3406;49.902;8.596;2022-10-14T02:59:59;14.30;99.90
6738;DHT22;3406;49.902;8.596;2022-10-14T03:02:25;14.30;99.90
6738;DHT22;3406;49.902;8.596;2022-10-14T03:04:52;14.30;99.90
6738;DHT22;3406;49.902;8.596;2022-10-14T03:07:20;14.40;99.90
6738;DHT22;3406;49.902;8.596;2022-10-14T03:09:47;14.30;99.90
6738;DHT22;3406;49.902;8.596;2022-10-14T03:12:13;14.30;99.90
6738;DHT22;3406;49.902;8.596;2022-10-14T03:14:40;14.30;99.90
6738;DHT22;3406;49.902;8.596;2022-10-14T03:17:07;14.30;99.90
6738;DHT22;3406;49.902;8.596;2022-10-14T03:19:33;14.30;99.90
6738;DHT22;3406;49.902;8.596;2022-10-14T03:22:00;14.30;99.90
6738;DHT22;3406;49.902;8.596;2022-10-14T03:24:28;14.30;99.90
6738;DHT22;3406;49.902;8.596;2022-10-14T03:26:55;14.30;99.90
6738;DHT22;3406;49.902;8.596;2022-10-14T03:29:21;14.30;99.90
6738;DHT22;3406;49.902;8.596;2022-10-14T03:31:48;14.30;99.90
6738;DHT22;3406;49.902;8.596;2022-10-14T03:34:15;14.30;99.90
6738;DHT22;3406;49.902;8.596;2022-10-14T03:36:41;14.30;99.90
6738;DHT22;3406;49.902;8.596;2022-10-14T03:39:08;14.30;99.90
6738;DHT22;3406;49.902;8.596;2022-10-14T03:41:37;14.30;99.90
6738;DHT22;3406;49.902;8.596;2022-10-14T03:44:04;14.30;99.90
6738;DHT22;3406;49.902;8.596;2022-10-14T03:46:31;14.30;99.90
6738;DHT22;3406;49.902;8.596;2022-10-14T03:48:57;14.30;99.90
6738;DHT22;3406;49.902;8.596;2022-10-14T03:51:24;14.30;99.90
6738;DHT22;3406;49.902;8.596;2022-10-14T03:53:51;14.30;99.90
6738;DHT22;3406;49.902;8.596;2022-10-14T03:56:17;14.30;99.90
6738;DHT22;3406;49.902;8.596;2022-10-14T03:58:45;14.20;99.90
6738;DHT22;3406;49.902;8.596;2022-10-14T04:01:12;14.20;99.90
6738;DHT22;3406;49.902;8.596;2022-10-14T04:03:39;14.30;99.90
6738;DHT22;3406;49.902;8.596;2022-10-14T04:06:06;14.30;99.90
6738;DHT22;3406;49.902;8.596;2022-10-14T04:08:33;14.20;99.90
6738;DHT22;3406;49.902;8.596;2022-10-14T04:10:59;14.20;99.90
6738;DHT22;3406;49.902;8.596;2022-10-14T04:13:26;14.20;99.90
6738;DHT22;3406;49.902;8.596;2022-10-14T04:15:54;14.20;99.90
6738;DHT22;3406;49.902;8.596;2022-10-14T04:18:21;14.20;99.90
6738;DHT22;3406;49.902;8.596;2022-10-14T04:20:47;14.20;99.90
6738;DHT22;3406;49.902;8.596;2022-10-14T04:23:14;14.20;99.90
6738;DHT22;3406;49.902;8.596;2022-10-14T04:25:41;14.20;99.90
6738;DHT22;3406;49.902;8.596;2022-10-14T04:28:07;14.20;99.90
6738;DHT22;3406;49.902;8.596;2022-10-14T04:30:34;14.20;99.90
6738;DHT22;3406;49.902;8.596;2022-10-14T04:33:02;14.20;99.90
6738;DHT22;3406;49.902;8.596;2022-10-14T04:35:29;14.20;99.90
6738;DHT22;3406;49.902;8.596;2022-10-14T04:37:55;14.20;99.90
6738;DHT22;3406;49.902;8.596;2022-10-14T04:40:22;14.20;99.90
6738;DHT22;3406;49.902;8.596;2022-10-14T04:42:53;14.20;99.90
6738;DHT22;3406;49.902;8.596;2022-10-14T04:45:20;14.20;99.90
6738;DHT22;3406;49.902;8.596;2022-10-14T04:47:47;14.10;99.90
6738;DHT22;3406;49.902;8.596;2022-10-14T04:50:16;14.10;99.90
6738;DHT22;3406;49.902;8.596;2022-10-14T04:52:43;14.10;99.90
6738;DHT22;3406;49.902;8.596;2022-10-14T04:55:10;14.10;99.90
6738;DHT22;3406;49.902;8.596;2022-10-14T04:57:37;14.10;99.90
6738;DHT22;3406;49.902;8.596;2022-10-14T05:00:08;14.20;99.90
6738;DHT22;3406;49.902;8.596;2022-10-14T05:02:35;14.20;99.90
6738;DHT22;3406;49.902;8.596;2022-10-14T05:05:02;14.20;99.90
6738;DHT22;3406;49.902;8.596;2022-10-14T05:07:30;14.20;99.90
6738;DHT22;3406;49.902;8.596;2022-10-14T05:09:57;14.20;99.90
6738;DHT22;3406;49.902;8.596;2022-10-14T05:12:23;14.20;99.90
6738;DHT22;3406;49.902;8.596;2022-10-14T05:14:50;14.20;99.90
6738;DHT22;3406;49.902;8.596;2022-10-14T05:17:17;14.20;99.90
6738;DHT22;3406;49.902;8.596;2022-10-14T05:19:44;14.20;99.90
6738;DHT22;3406;49.902;8.596;2022-10-14T05:22:11;14.20;99.90
6738;DHT22;3406;49.902;8.596;2022-10-14T05:24:39;14.20;99.90
6738;DHT22;3406;49.902;8.596;2022-10-14T05:27:06;14.10;99.90
6738;DHT22;3406;49.902;8.596;2022-10-14T05:29:33;14.20;99.90
6738;DHT22;3406;49.902;8.596;2022-10-14T05:31:59;14.20;99.90
6738;DHT22;3406;49.902;8.596;2022-10-14T05:34:26;14.20;99.90
6738;DHT22;3406;49.902;8.596;2022-10-14T05:36:53;14.20;99.90
6738;DHT22;3406;49.902;8.596;2022-10-14T05:39:19;14.20;99.90
6738;DHT22;3406;49.902;8.596;2022-10-14T05:41:47;14.20;99.90
6738;DHT22;3406;49.902;8.596;2022-10-14T05:44:14;14.20;99.90
6738;DHT22;3406;49.902;8.596;2022-10-14T05:46:41;14.20;99.90
6738;DHT22;3406;49.902;8.596;2022-10-14T05:49:09;14.20;99.90
6738;DHT22;3406;49.902;8.596;2022-10-14T05:51:36;14.30;99.90
6738;DHT22;3406;49.902;8.596;2022-10-14T05:54:03;14.30;99.90
6738;DHT22;3406;49.902;8.596;2022-10-14T05:56:29;14.20;99.90
6738;DHT22;3406;49.902;8.596;2022-10-14T05:58:57;14.20;99.90
6738;DHT22;3406;49.902;8.596;2022-10-14T06:01:24;14.30;99.90
6738;DHT22;3406;49.902;8.596;2022-10-14T06:03:51;14.30;99.90
6738;DHT22;3406;49.902;8.596;2022-10-14T06:06:18;14.30;99.90
6738;DHT22;3406;49.902;8.596;2022-10-14T06:08:45;14.30;99.90
6738;DHT22;3406;49.902;8.596;2022-10-14T06:11:11;14.30;99.90
6738;DHT22;3406;49.902;8.596;2022-10-14T06:13:38;14.30;99.90
6738;DHT22;3406;49.902;8.596;2022-10-14T06:16:08;14.30;99.90
6738;DHT22;3406;49.902;8.596;2022-10-14T06:18:36;14.30;99.90
6738;DHT22;3406;49.902;8.596;2022-10-14T06:21:04;14.40;99.90
6738;DHT22;3406;49.902;8.596;2022-10-14T06:23:31;14.30;99.90
6738;DHT22;3406;49.902;8.596;2022-10-14T06:26:02;14.40;99.90
6738;DHT22;3406;49.902;8.596;2022-10-14T06:28:29;14.40;99.90
6738;DHT22;3406;49.902;8.596;2022-10-14T06:30:56;14.40;99.90
6738;DHT22;3406;49.902;8.596;2022-10-14T06:33:24;14.40;99.90
6738;DHT22;3406;49.902;8.596;2022-10-14T06:35:50;14.40;99.90
6738;DHT22;3406;49.902;8.596;2022-10-14T06:38:17;14.40;99.90
6738;DHT22;3406;49.902;8.596;2022-10-14T06:40:44;14.50;99.90
6738;DHT22;3406;49.902;8.596;2022-10-14T06:43:11;14.50;99.90
6738;DHT22;3406;49.902;8.596;2022-10-14T06:45:38;14.50;99.90
6738;DHT22;3406;49.902;8.596;2022-10-14T06:48:05;14.50;99.90
6738;DHT22;3406;49.902;8.596;2022-10-14T06:50:33;14.60;99.90
6738;DHT22;3406;49.902;8.596;2022-10-14T06:53:00;14.60;99.90
6738;DHT22;3406;49.902;8.596;2022-10-14T06:55:27;14.70;99.90
6738;DHT22;3406;49.902;8.596;2022-10-14T06:57:54;14.70;99.90
6738;DHT22;3406;49.902;8.596;2022-10-14T07:00:21;14.70;99.90
6738;DHT22;3406;49.902;8.596;2022-10-14T07:02:48;14.70;99.90
6738;DHT22;3406;49.902;8.596;2022-10-14T07:05:14;14.70;99.90
6738;DHT22;3406;49.902;8.596;2022-10-14T07:07:43;14.70;99.90
6738;DHT22;3406;49.902;8.596;2022-10-14T07:10:09;14.70;99.90
6738;DHT22;3406;49.902;8.596;2022-10-14T07:12:36;14.70;99.90
6738;DHT22;3406;49.902;8.596;2022-10-14T07:15:03;14.70;99.90
6738;DHT22;3406;49.902;8.596;2022-10-14T07:17:30;14.70;99.90
6738;DHT22;3406;49.902;8.596;2022-10-14T07:19:57;14.70;99.90
6738;DHT22;3406;49.902;8.596;2022-10-14T07:22:24;14.80;99.90
6738;DHT22;3406;49.902;8.596;2022-10-14T07:24:52;14.70;99.90
6738;DHT22;3406;49.902;8.596;2022-10-14T07:27:19;14.70;99.90
6738;DHT22;3406;49.902;8.596;2022-10-14T07:29:45;14.80;99.90
6738;DHT22;3406;49.902;8.596;2022-10-14T07:32:12;14.80;99.90
6738;DHT22;3406;49.902;8.596;2022-10-14T07:34:39;14.80;99.90
6738;DHT22;3406;49.902;8.596;2022-10-14T07:37:05;14.90;99.90
6738;DHT22;3406;49.902;8.596;2022-10-14T07:39:32;14.90;99.90
6738;DHT22;3406;49.902;8.596;2022-10-14T07:42:00;14.90;99.90
6738;DHT22;3406;49.902;8.596;2022-10-14T07:44:27;14.90;99.90
6738;DHT22;3406;49.902;8.596;2022-10-14T07:46:54;14.90;99.90
6738;DHT22;3406;49.902;8.596;2022-10-14T07:49:30;14.90;99.90
6738;DHT22;3406;49.902;8.596;2022-10-14T07:51:56;14.90;99.90
6738;DHT22;3406;49.902;8.596;2022-10-14T07:54:25;14.90;99.90
6738;DHT22;3406;49.902;8.596;2022-10-14T07:56:54;14.90;99.90
6738;DHT22;3406;49.902;8.596;2022-10-14T07:59:24;15.00;99.90
6738;DHT22;3406;49.902;8.596;2022-10-14T08:01:51;15.00;99.90
6738;DHT22;3406;49.902;8.596;2022-10-14T08:04:18;15.10;99.90
6738;DHT22;3406;49.902;8.596;2022-10-14T08:06:46;15.10;99.90
6738;DHT22;3406;49.902;8.596;2022-10-14T08:09:13;15.10;99.90
6738;DHT22;3406;49.902;8.596;2022-10-14T08:11:40;15.20;99.90
6738;DHT22;3406;49.902;8.596;2022-10-14T08:14:08;15.20;99.90
6738;DHT22;3406;49.902;8.596;2022-10-14T08:16:36;15.30;99.90
6738;DHT22;3406;49.902;8.596;2022-10-14T08:19:05;15.30;99.90
6738;DHT22;3406;49.902;8.596;2022-10-14T08:21:32;15.40;99.90
6738;DHT22;3406;49.902;8.596;2022-10-14T08:23:59;15.50;99.90
6738;DHT22;3406;49.902;8.596;2022-10-14T08:26:27;15.50;99.90
6738;DHT22;3406;49.902;8.596;2022-10-14T08:28:56;15.50;99.90
6738;DHT22;3406;49.902;8.596;2022-10-14T08:31:23;15.60;99.90
6738;DHT22;3406;49.902;8.596;2022-10-14T08:33:51;15.60;99.90
6738;DHT22;3406;49.902;8.596;2022-10-14T08:36:18;15.60;99.90
6738;DHT22;3406;49.902;8.596;2022-10-14T08:38:46;15.60;99.90
6738;DHT22;3406;49.902;8.596;2022-10-14T08:41:24;15.60;99.90
6738;DHT22;3406;49.902;8.596;2022-10-14T08:44:00;15.70;99.90
6738;DHT22;3406;49.902;8.596;2022-10-14T08:46:33;15.70;99.90
6738;DHT22;3406;49.902;8.596;2022-10-14T08:49:09;15.80;99.90
6738;DHT22;3406;49.902;8.596;2022-10-14T08:51:37;15.90;99.90
6738;DHT22;3406;49.902;8.596;2022-10-14T08:54:13;15.90;99.90
6738;DHT22;3406;49.902;8.596;2022-10-14T08:56:40;15.90;99.90
6738;DHT22;3406;49.902;8.596;2022-10-14T08:59:12;15.90;99.90
6738;DHT22;3406;49.902;8.596;2022-10-14T09:01:48;15.90;99.90
6738;DHT22;3406;49.902;8.596;2022-10-14T09:04:16;15.90;99.90
6738;DHT22;3406;49.902;8.596;2022-10-14T09:06:45;15.90;99.90
6738;DHT22;3406;49.902;8.596;2022-10-14T09:09:17;15.90;99.90
6738;DHT22;3406;49.902;8.596;2022-10-14T09:11:49;15.90;99.90
6738;DHT22;3406;49.902;8.596;2022-10-14T09:14:18;15.90;99.90
6738;DHT22;3406;49.902;8.596;2022-10-14T09:16:47;16.00;99.90
6738;DHT22;3406;49.902;8.596;2022-10-14T09:19:24;16.00;99.90
6738;DHT22;3406;49.902;8.596;2022-10-14T09:21:53;16.10;99.90
6738;DHT22;3406;49.902;8.596;2022-10-14T09:24:22;16.10;99.90
6738;DHT22;3406;49.902;8.596;2022-10-14T09:26:50;16.10;99.90
6738;DHT22;3406;49.902;8.596;2022-10-14T09:29:23;16.20;99.90
6738;DHT22;3406;49.902;8.596;2022-10-14T09:31:50;16.20;99.90
6738;DHT22;3406;49.902;8.596;2022-10-14T09:34:22;16.30;99.90
6738;DHT22;3406;49.902;8.596;2022-10-14T09:36:52;16.30;99.90
6738;DHT22;3406;49.902;8.596;2022-10-14T09:39:19;16.30;99.90
6738;DHT22;3406;49.902;8.596;2022-10-14T09:41:48;16.30;99.90
6738;DHT22;3406;49.902;8.596;2022-10-14T09:44:19;16.30;99.90
6738;DHT22;3406;49.902;8.596;2022-10-14T09:46:49;16.30;99.90
6738;DHT22;3406;49.902;8.596;2022-10-14T09:49:19;16.30;99.90
6738;DHT22;3406;49.902;8.596;2022-10-14T09:51:49;16.40;99.90
6738;DHT22;3406;49.902;8.596;2022-10-14T09:54:23;16.50;99.90
6738;DHT22;3406;49.902;8.596;2022-10-14T09:57:02;16.60;99.90
6738;DHT22;3406;49.902;8.596;2022-10-14T09:59:30;16.80;99.90
6738;DHT22;3406;49.902;8.596;2022-10-14T10:01:59;16.90;99.90
6738;DHT22;3406;49.902;8.596;2022-10-14T10:04:35;17.00;99.90
6738;DHT22;3406;49.902;8.596;2022-10-14T10:07:05;17.00;99.90
6738;DHT22;3406;49.902;8.596;2022-10-14T10:09:32;17.10;99.90
6738;DHT22;3406;49.902;8.596;2022-10-14T10:11:59;17.20;99.90
6738;DHT22;3406;49.902;8.596;2022-10-14T10:14:31;17.30;99.90
6738;DHT22;3406;49.902;8.596;2022-10-14T10:17:12;17.30;99.90
6738;DHT22;3406;49.902;8.596;2022-10-14T10:19:45;17.40;99.90
6738;DHT22;3406;49.902;8.596;2022-10-14T10:22:21;17.40;99.90
6738;DHT22;3406;49.902;8.596;2022-10-14T10:24:49;17.40;99.90
6738;DHT22;3406;49.902;8.596;2022-10-14T10:27:23;17.40;99.90
6738;DHT22;3406;49.902;8.596;2022-10-14T10:29:50;17.40;99.70
6738;DHT22;3406;49.902;8.596;2022-10-14T10:32:21;17.40;99.30
6738;DHT22;3406;49.902;8.596;2022-10-14T10:35:04;17.40;99.10
6738;DHT22;3406;49.902;8.596;2022-10-14T10:37:40;17.50;98.90
6738;DHT22;3406;49.902;8.596;2022-10-14T10:40:33;17.50;98.60
6738;DHT22;3406;49.902;8.596;2022-10-14T10:43:30;17.50;98.20
6738;DHT22;3406;49.902;8.596;2022-10-14T10:46:09;17.40;97.90
6738;DHT22;3406;49.902;8.596;2022-10-14T10:48:44;17.40;97.50
6738;DHT22;3406;49.902;8.596;2022-10-14T10:51:18;17.40;97.30
6738;DHT22;3406;49.902;8.596;2022-10-14T10:54:02;17.30;97.00
6738;DHT22;3406;49.902;8.596;2022-10-14T10:56:37;17.30;97.00
6738;DHT22;3406;49.902;8.596;2022-10-14T10:59:24;17.30;96.80
6738;DHT22;3406;49.902;8.596;2022-10-14T11:02:10;17.20;96.50
6738;DHT22;3406;49.902;8.596;2022-10-14T11:04:45;17.20;96.40
6738;DHT22;3406;49.902;8.596;2022-10-14T11:07:20;17.20;96.40
6738;DHT22;3406;49.902;8.596;2022-10-14T11:10:14;17.10;96.40
6738;DHT22;3406;49.902;8.596;2022-10-14T11:13:04;17.10;96.40
6738;DHT22;3406;49.902;8.596;2022-10-14T11:15:41;17.10;96.40
6738;DHT22;3406;49.902;8.596;2022-10-14T11:18:13;17.10;96.40
6738;DHT22;3406;49.902;8.596;2022-10-14T11:20:53;17.10;96.40
6738;DHT22;3406;49.902;8.596;2022-10-14T11:23:54;17.10;96.50
6738;DHT22;3406;49.902;8.596;2022-10-14T11:26:37;17.10;96.60
6738;DHT22;3406;49.902;8.596;2022-10-14T11:29:18;17.20;96.70
6738;DHT22;3406;49.902;8.596;2022-10-14T11:31:52;17.20;96.70
6738;DHT22;3406;49.902;8.596;2022-10-14T11:34:36;17.20;96.70
6738;DHT22;3406;49.902;8.596;2022-10-14T11:37:14;17.10;96.70
6738;DHT22;3406;49.902;8.596;2022-10-14T11:39:48;17.20;96.80
6738;DHT22;3406;49.902;8.596;2022-10-14T11:42:24;17.10;96.70
6738;DHT22;3406;49.902;8.596;2022-10-14T11:45:05;17.10;96.60
6738;DHT22;3406;49.902;8.596;2022-10-14T11:47:38;17.00;96.60
6738;DHT22;3406;49.902;8.596;2022-10-14T11:50:14;16.90;96.70
6738;DHT22;3406;49.902;8.596;2022-10-14T11:52:45;16.90;96.80
6738;DHT22;3406;49.902;8.596;2022-10-14T11:55:18;16.80;97.00
6738;DHT22;3406;49.902;8.596;2022-10-14T11:57:49;16.80;97.20
6738;DHT22;3406;49.902;8.596;2022-10-14T12:00:19;16.80;97.40
6738;DHT22;3406;49.902;8.596;2022-10-14T12:03:09;16.70;97.40
6738;DHT22;3406;49.902;8.596;2022-10-14T12:05:42;16.60;97.50
6738;DHT22;3406;49.902;8.596;2022-10-14T12:08:19;16.60;97.60
6738;DHT22;3406;49.902;8.596;2022-10-14T12:10:51;16.40;97.80
6738;DHT22;3406;49.902;8.596;2022-10-14T12:13:24;16.40;97.80
6738;DHT22;3406;49.902;8.596;2022-10-14T12:15:54;16.40;98.00
6738;DHT22;3406;49.902;8.596;2022-10-14T12:18:20;16.30;98.10
6738;DHT22;3406;49.902;8.596;2022-10-14T12:20:52;16.20;98.20
6738;DHT22;3406;49.902;8.596;2022-10-14T12:23:27;16.20;98.40
6738;DHT22;3406;49.902;8.596;2022-10-14T12:26:01;16.10;98.60
6738;DHT22;3406;49.902;8.596;2022-10-14T12:28:29;16.10;98.80
6738;DHT22;3406;49.902;8.596;2022-10-14T12:31:21;16.10;99.00
6738;DHT22;3406;49.902;8.596;2022-10-14T12:36:49;16.00;99.30
6738;DHT22;3406;49.902;8.596;2022-10-14T12:39:29;16.00;99.30
6738;DHT22;3406;49.902;8.596;2022-10-14T12:42:01;16.00;99.60
6738;DHT22;3406;49.902;8.596;2022-10-14T12:44:33;16.00;99.80
6738;DHT22;3406;49.902;8.596;2022-10-14T12:47:01;16.00;99.90
6738;DHT22;3406;49.902;8.596;2022-10-14T12:49:30;16.00;99.90
6738;DHT22;3406;49.902;8.596;2022-10-14T12:51:59;16.00;99.90
6738;DHT22;3406;49.902;8.596;2022-10-14T12:54:27;15.90;99.90
6738;DHT22;3406;49.902;8.596;2022-10-14T12:56:57;15.90;99.90
6738;DHT22;3406;49.902;8.596;2022-10-14T12:59:27;15.90;99.90
6738;DHT22;3406;49.902;8.596;2022-10-14T13:01:56;16.00;99.90
6738;DHT22;3406;49.902;8.596;2022-10-14T13:04:24;16.00;99.90
6738;DHT22;3406;49.902;8.596;2022-10-14T13:07:12;16.00;99.90
6738;DHT22;3406;49.902;8.596;2022-10-14T13:09:39;16.10;99.90
6738;DHT22;3406;49.902;8.596;2022-10-14T13:15:34;16.10;99.90
6738;DHT22;3406;49.902;8.596;2022-10-14T13:21:06;16.10;99.90
6738;DHT22;3406;49.902;8.596;2022-10-14T13:23:37;16.10;99.90
6738;DHT22;3406;49.902;8.596;2022-10-14T13:26:17;16.00;99.90
6738;DHT22;3406;49.902;8.596;2022-10-14T13:28:54;16.00;99.90
6738;DHT22;3406;49.902;8.596;2022-10-14T13:31:28;16.10;99.90
6738;DHT22;3406;49.902;8.596;2022-10-14T13:34:10;16.10;99.90
6738;DHT22;3406;49.902;8.596;2022-10-14T13:36:42;16.10;99.90
6738;DHT22;3406;49.902;8.596;2022-10-14T13:39:14;16.10;99.90
6738;DHT22;3406;49.902;8.596;2022-10-14T13:41:42;16.10;99.90
6738;DHT22;3406;49.902;8.596;2022-10-14T13:44:10;16.10;99.90
6738;DHT22;3406;49.902;8.596;2022-10-14T13:46:41;16.10;99.90
6738;DHT22;3406;49.902;8.596;2022-10-14T13:49:13;16.10;99.90
6738;DHT22;3406;49.902;8.596;2022-10-14T13:51:43;16.10;99.90
6738;DHT22;3406;49.902;8.596;2022-10-14T13:54:17;16.10;99.90
6738;DHT22;3406;49.902;8.596;2022-10-14T13:56:55;16.10;99.90
6738;DHT22;3406;49.902;8.596;2022-10-14T13:59:24;16.00;99.90
6738;DHT22;3406;49.902;8.596;2022-10-14T14:01:53;16.10;99.90
6738;DHT22;3406;49.902;8.596;2022-10-14T14:04:23;16.10;99.90
6738;DHT22;3406;49.902;8.596;2022-10-14T14:06:51;16.10;99.90
6738;DHT22;3406;49.902;8.596;2022-10-14T14:09:21;16.10;99.90
6738;DHT22;3406;49.902;8.596;2022-10-14T14:11:50;16.10;99.90
6738;DHT22;3406;49.902;8.596;2022-10-14T14:14:20;16.20;99.90
6738;DHT22;3406;49.902;8.596;2022-10-14T14:16:52;16.20;99.90
6738;DHT22;3406;49.902;8.596;2022-10-14T14:19:23;16.20;99.90
6738;DHT22;3406;49.902;8.596;2022-10-14T14:21:51;16.20;99.90
6738;DHT22;3406;49.902;8.596;2022-10-14T14:24:22;16.20;99.90
6738;DHT22;3406;49.902;8.596;2022-10-14T14:26:52;16.30;99.90
6738;DHT22;3406;49.902;8.596;2022-10-14T14:29:22;16.40;99.90
6738;DHT22;3406;49.902;8.596;2022-10-14T14:31:50;16.40;99.90
6738;DHT22;3406;49.902;8.596;2022-10-14T14:34:20;16.40;99.90
6738;DHT22;3406;49.902;8.596;2022-10-14T14:36:48;16.40;99.90
6738;DHT22;3406;49.902;8.596;2022-10-14T14:39:20;16.50;99.90
6738;DHT22;3406;49.902;8.596;2022-10-14T14:41:51;16.50;99.90
6738;DHT22;3406;49.902;8.596;2022-10-14T14:44:20;16.50;99.90
6738;DHT22;3406;49.902;8.596;2022-10-14T14:46:48;16.50;99.90
6738;DHT22;3406;49.902;8.596;2022-10-14T14:49:19;16.50;99.90
6738;DHT22;3406;49.902;8.596;2022-10-14T14:51:49;16.50;99.90
6738;DHT22;3406;49.902;8.596;2022-10-14T14:54:18;16.50;99.90
6738;DHT22;3406;49.902;8.596;2022-10-14T14:56:47;16.60;99.90
6738;DHT22;3406;49.902;8.596;2022-10-14T14:59:21;16.60;99.90
6738;DHT22;3406;49.902;8.596;2022-10-14T15:01:50;16.60;99.90
6738;DHT22;3406;49.902;8.596;2022-10-14T15:04:19;16.60;99.90
6738;DHT22;3406;49.902;8.596;2022-10-14T15:06:56;16.50;99.90
6738;DHT22;3406;49.902;8.596;2022-10-14T15:09:32;16.50;99.90
6738;DHT22;3406;49.902;8.596;2022-10-14T15:12:13;16.50;99.90
6738;DHT22;3406;49.902;8.596;2022-10-14T15:14:43;16.50;99.90
6738;DHT22;3406;49.902;8.596;2022-10-14T15:17:23;16.50;99.90
6738;DHT22;3406;49.902;8.596;2022-10-14T15:19:51;16.50;99.90
6738;DHT22;3406;49.902;8.596;2022-10-14T15:22:22;16.50;99.90
6738;DHT22;3406;49.902;8.596;2022-10-14T15:25:02;16.50;99.90
6738;DHT22;3406;49.902;8.596;2022-10-14T15:30:25;16.50;99.90
6738;DHT22;3406;49.902;8.596;2022-10-14T15:33:00;16.50;99.90
6738;DHT22;3406;49.902;8.596;2022-10-14T15:35:28;16.50;99.90
6738;DHT22;3406;49.902;8.596;2022-10-14T15:37:56;16.50;99.90
6738;DHT22;3406;49.902;8.596;2022-10-14T15:40:27;16.50;99.90
6738;DHT22;3406;49.902;8.596;2022-10-14T15:42:54;16.50;99.90
6738;DHT22;3406;49.902;8.596;2022-10-14T15:45:21;16.50;99.90
6738;DHT22;3406;49.902;8.596;2022-10-14T15:47:53;16.50;99.90
6738;DHT22;3406;49.902;8.596;2022-10-14T15:50:22;16.50;99.90
6738;DHT22;3406;49.902;8.596;2022-10-14T15:52:50;16.40;99.90
6738;DHT22;3406;49.902;8.596;2022-10-14T15:55:20;16.40;99.90
6738;DHT22;3406;49.902;8.596;2022-10-14T15:57:48;16.40;99.90
6738;DHT22;3406;49.902;8.596;2022-10-14T16:00:15;16.40;99.90
6738;DHT22;3406;49.902;8.596;2022-10-14T16:02:43;16.40;99.90
6738;DHT22;3406;49.902;8.596;2022-10-14T16:05:11;16.40;99.90
6738;DHT22;3406;49.902;8.596;2022-10-14T16:07:38;16.40;99.90
6738;DHT22;3406;49.902;8.596;2022-10-14T16:10:06;16.40;99.90
6738;DHT22;3406;49.902;8.596;2022-10-14T16:12:35;16.40;99.90
6738;DHT22;3406;49.902;8.596;2022-10-14T16:15:02;16.40;99.90
6738;DHT22;3406;49.902;8.596;2022-10-14T16:17:29;16.30;99.90
6738;DHT22;3406;49.902;8.596;2022-10-14T16:19:56;16.30;99.90
6738;DHT22;3406;49.902;8.596;2022-10-14T16:22:23;16.30;99.90
6738;DHT22;3406;49.902;8.596;2022-10-14T16:24:49;16.30;99.90
6738;DHT22;3406;49.902;8.596;2022-10-14T16:27:16;16.30;99.90
6738;DHT22;3406;49.902;8.596;2022-10-14T16:29:44;16.30;99.90
6738;DHT22;3406;49.902;8.596;2022-10-14T16:32:11;16.30;99.90
6738;DHT22;3406;49.902;8.596;2022-10-14T16:34:39;16.20;99.90